19:03
Airports
History
Links
Donate
Help keep this website running!
PayPal
Bitcoin
This page is community maintained. The information is intended for PC simulator navigation or reference.
Always use approved charts for navigation.
SBKG
PRESIDENTE JOAO SUASSUNA
PRESIDENTE JOAO SUASSUNA (SBKG)
Campina Grande, Paraíba, Brazil (58411)
(C)
Lat/Lng:7° 16' 11.7" S / 35° 53' 46.91" W
-7.269917 / -35.896364
Elevation:1646'ft / 502mMSL
ID / ICAO:SBKG
Runways:1
Longest:15-33
Asphalt 1,609m / 5,280ft
Controlled:Yes
METAR17:00 GMT 2017-12-11
Altimeter: 29.85
Visibility: 6.2 statute miles
Wind: 10 knots (from 080°)
Temp: 32°c / 90°f
Humidity: 40.8%

METAR: SBKG 111700Z 08010KT 030V140 CAVOK 32/17 Q1011

(Powered by phpweather)
Airport Radio Frequencies
Tower: 125.9
Runway 15 / 33
Dimensions:1609.3 x 42.1m 5280' x 138'ft
Surface:Asphalt
Edge Lights:Low intensity
Runway 15 [A]Runway 33 [B]
Heading:125°TH 305°TH
Lat:
Lng:
7° 15' 56.61"S
35° 54' 8.2"W
7° 16' 26.79"S
35° 53' 25.62"W
User Notes and Comments
7° 16' 11.7" S / 35° 53' 46.91" W
Distance To
Airport ID:
Nearby Airports
4 Aeroclube 9.0 NM
SNKB NW 314°
(U) Tabuleiro 43.8 NM
SJFU NNE 24°
4 Pedra 53.1 NM
SWQK NW 310°
4 Pedro Simoes Pimenta 56.6 NM
SICB NNW 342°
4 Sitio Flor de Lys 57.7 NM
SIVL WNW 292°
(C) Rio Tinto 63.7 NM
SNRN ENE 58°
(U) Fazenda Lagoa do Cavalo 64.8 NM
SDWI SSE 163°
VFR Chart
Flight Planning at SkyVector.com